Time;durP1;ratioP1;P1;durP2;ratioP2;P2;SDS_P1;SDS_P2;PMS_P1;PMS_P2;Temp;Humidity;BMP_temperature;BMP_pressure;BME280_temperature;BME280_humidity;BME280_pressure;Samples;Min_cycle;Max_cycle;Signal;HPM_P1;HPM_P2
2023/03/17 00:00:37;;;;;;;0.30;0.30;;;;;;;18.68;43.53;100599.47;5076335;28;20052;-37
2023/03/17 00:03:03;;;;;;;0.30;0.30;;;;;;;18.68;43.49;100599.47;5060084;28;20043;-37
2023/03/17 00:05:32;;;;;;;0.30;0.30;;;;;;;18.68;43.30;100610.50;5077325;28;20082;-37
2023/03/17 00:08:03;;;;;;;0.30;0.30;;;;;;;18.68;43.42;100620.69;5077863;28;20399;-37
2023/03/17 00:10:28;;;;;;;0.40;0.40;;;;;;;18.68;43.69;100617.94;5077164;28;20043;-37
2023/03/17 00:12:54;;;;;;;0.30;0.30;;;;;;;18.68;43.51;100615.19;5095607;28;20074;-37
2023/03/17 00:15:21;;;;;;;0.30;0.30;;;;;;;18.68;43.55;100610.50;5107380;28;20434;-37
2023/03/17 00:17:48;;;;;;;0.30;0.30;;;;;;;18.67;43.57;100611.59;5098063;28;20047;-37
2023/03/17 00:20:24;;;;;;;0.30;0.30;;;;;;;18.69;43.41;100616.81;5096313;28;20043;-37
2023/03/17 00:22:50;;;;;;;0.30;0.30;;;;;;;18.68;43.57;100617.94;5115858;28;20075;-37
2023/03/17 00:25:19;;;;;;;0.30;0.30;;;;;;;18.68;43.69;100617.94;5097388;28;20078;-37
2023/03/17 00:27:44;;;;;;;0.30;0.30;;;;;;;18.67;43.68;100616.31;5096962;28;20503;-37
2023/03/17 00:30:10;;;;;;;0.30;0.30;;;;;;;18.67;43.51;100613.53;5115961;28;20057;-37
2023/03/17 00:32:37;;;;;;;0.30;0.30;;;;;;;18.67;43.43;100614.38;5097128;28;20047;-37
2023/03/17 00:35:04;;;;;;;0.30;0.30;;;;;;;18.67;43.45;100613.53;5115296;28;20047;-36
2023/03/17 00:37:30;;;;;;;0.20;0.20;;;;;;;18.68;43.60;100612.44;5096423;28;20155;-37
2023/03/17 00:39:56;;;;;;;0.30;0.30;;;;;;;18.67;43.55;100608.84;5114951;28;20428;-37
2023/03/17 00:42:22;;;;;;;0.30;0.30;;;;;;;18.67;43.67;100608.03;5096571;28;20429;-37
2023/03/17 00:44:47;;;;;;;0.30;0.30;;;;;;;18.67;43.77;100613.53;5104056;28;20388;-37
2023/03/17 00:47:13;;;;;;;0.30;0.30;;;;;;;18.67;43.65;100606.09;5114688;28;20386;-36
2023/03/17 00:49:39;;;;;;;0.20;0.20;;;;;;;18.67;43.50;100597.81;5114891;28;20054;-37
2023/03/17 00:52:05;;;;;;;0.30;0.30;;;;;;;18.67;43.40;100588.72;5114315;28;20437;-36
2023/03/17 00:54:30;;;;;;;0.30;0.30;;;;;;;18.67;43.60;100591.47;5115067;28;20043;-37
2023/03/17 00:56:56;;;;;;;0.28;0.28;;;;;;;18.66;43.67;100582.38;5114687;28;20602;-37
2023/03/17 00:59:37;;;;;;;0.30;0.30;;;;;;;18.68;43.63;100593.13;5115119;28;20119;-37
2023/03/17 01:02:03;;;;;;;0.30;0.30;;;;;;;18.67;43.66;100594.25;5095907;28;20076;-37
2023/03/17 01:04:28;;;;;;;0.30;0.30;;;;;;;18.66;43.61;100590.66;5115219;28;20047;-37
2023/03/17 01:06:54;;;;;;;0.30;0.30;;;;;;;18.67;43.47;100578.50;5114668;28;20043;-37
2023/03/17 01:09:23;;;;;;;0.20;0.20;;;;;;;18.67;43.56;100573.00;5096862;28;20051;-37
2023/03/17 01:11:48;;;;;;;;;;;;;;;18.66;43.66;100568.59;5081229;28;20039;-36
2023/03/17 01:14:14;;;;;;;0.30;0.30;;;;;;;18.66;43.65;100549.28;5117821;28;19923;-36
2023/03/17 01:16:40;;;;;;;0.20;0.20;;;;;;;18.66;43.50;100542.94;5100068;28;20050;-37
2023/03/17 01:19:06;;;;;;;0.30;0.30;;;;;;;18.66;43.50;100542.94;5099881;28;20058;-37
2023/03/17 01:21:31;;;;;;;0.30;0.30;;;;;;;18.66;43.55;100545.72;5100090;28;20559;-37
2023/03/17 01:23:57;;;;;;;0.30;0.30;;;;;;;18.67;43.52;100539.06;5118902;28;20731;-37
2023/03/17 01:26:23;;;;;;;0.20;0.20;;;;;;;18.66;43.31;100531.91;5117231;28;20139;-37
2023/03/17 01:28:51;;;;;;;0.20;0.20;;;;;;;18.66;43.43;100527.22;5118280;28;20100;-37
2023/03/17 01:31:18;;;;;;;0.30;0.30;;;;;;;18.66;43.57;100512.59;5118956;28;20051;-37
2023/03/17 01:33:44;;;;;;;0.30;0.30;;;;;;;18.67;43.57;100505.97;5118642;28;20043;-37
2023/03/17 01:36:09;;;;;;;0.25;0.25;;;;;;;18.66;43.51;100499.63;5118025;28;20047;-37
2023/03/17 01:38:36;;;;;;;0.30;0.30;;;;;;;18.66;43.69;100502.41;5108495;28;20053;-37
2023/03/17 01:41:02;;;;;;;0.30;0.30;;;;;;;18.65;43.61;100506.28;5098052;28;20074;-37
2023/03/17 01:43:28;;;;;;;0.30;0.30;;;;;;;18.67;43.42;100505.97;5084761;28;20475;-37
2023/03/17 01:46:20;;;;;;;0.30;0.30;;;;;;;18.66;43.61;100502.41;5110476;28;20074;-36
2023/03/17 01:48:58;;;;;;;0.20;0.20;;;;;;;18.66;43.61;100504.34;5103818;28;20152;-37
2023/03/17 01:51:31;;;;;;;0.30;0.30;;;;;;;18.66;43.52;100504.34;5117947;28;20085;-37
2023/03/17 01:53:59;;;;;;;0.30;0.30;;;;;;;18.67;43.72;100504.03;5100035;28;20050;-36
2023/03/17 01:56:25;;;;;;;0.30;0.30;;;;;;;18.66;43.69;100494.13;5117567;28;20081;-37
2023/03/17 01:58:53;;;;;;;0.30;0.30;;;;;;;18.65;43.47;100505.41;5117694;28;20043;-37
2023/03/17 02:01:22;;;;;;;0.20;0.20;;;;;;;18.66;43.50;100501.56;5117985;28;20529;-36
2023/03/17 02:03:49;;;;;;;0.30;0.30;;;;;;;18.65;43.76;100503.50;5117190;28;20050;-37
2023/03/17 02:06:15;;;;;;;0.30;0.30;;;;;;;18.65;43.54;100503.50;5117704;28;20047;-37
2023/03/17 02:08:41;;;;;;;0.30;0.30;;;;;;;18.65;43.62;100494.38;5117442;28;20054;-37
2023/03/17 02:11:08;;;;;;;0.30;0.30;;;;;;;18.65;43.75;100499.91;5117829;28;20046;-37
2023/03/17 02:13:35;;;;;;;0.30;0.30;;;;;;;18.66;43.67;100504.34;5117409;28;20043;-37
2023/03/17 02:16:01;;;;;;;0.25;0.25;;;;;;;18.64;43.77;100504.59;5099078;28;20429;-37
2023/03/17 02:18:26;;;;;;;0.30;0.30;;;;;;;18.66;43.98;100505.16;5117308;28;20581;-37
2023/03/17 02:23:27;;;;;;;0.20;0.20;;;;;;;18.66;43.49;100496.06;5174815;27;20120;-37
2023/03/17 02:25:52;;;;;;;0.30;0.30;;;;;;;18.65;43.49;100494.38;5152771;27;20042;-36
2023/03/17 02:28:22;;;;;;;0.20;0.20;;;;;;;18.65;43.48;100497.16;5133615;27;20503;-36
2023/03/17 02:30:48;;;;;;;0.30;0.30;;;;;;;18.65;43.73;100497.16;5133132;27;20047;-37
2023/03/17 02:33:13;;;;;;;0.30;0.30;;;;;;;18.65;43.77;100494.38;5132794;27;20406;-37
2023/03/17 02:35:40;;;;;;;0.30;0.30;;;;;;;18.65;43.62;100492.47;5132572;27;20047;-36
2023/03/17 02:38:06;;;;;;;0.30;0.30;;;;;;;18.64;43.74;100490.81;5129460;27;20479;-37
2023/03/17 02:40:32;;;;;;;0.30;0.30;;;;;;;18.66;43.63;100490.53;5131637;27;20046;-37
2023/03/17 02:42:58;;;;;;;0.20;0.20;;;;;;;18.64;43.75;100477.03;5133054;27;20051;-36
2023/03/17 02:45:24;;;;;;;0.25;0.25;;;;;;;18.65;43.48;100466.81;5130277;27;20078;-36
2023/03/17 02:47:50;;;;;;;0.30;0.30;;;;;;;18.64;43.50;100471.50;5114958;27;20254;-36
2023/03/17 02:50:18;;;;;;;0.30;0.30;;;;;;;18.65;43.62;100475.94;5112920;27;20125;-37
2023/03/17 02:52:44;;;;;;;0.20;0.20;;;;;;;18.65;43.79;100477.84;5113694;27;20803;-37
2023/03/17 02:55:10;;;;;;;0.30;0.30;;;;;;;18.65;43.77;100481.44;5132528;27;20047;-37
2023/03/17 02:57:35;;;;;;;0.30;0.30;;;;;;;18.63;43.69;100478.13;5132129;27;20454;-36
2023/03/17 03:00:02;;;;;;;0.30;0.30;;;;;;;18.64;43.63;100479.78;5131667;27;20051;-37
2023/03/17 03:02:28;;;;;;;0.30;0.30;;;;;;;18.64;43.69;100477.03;5111669;27;20311;-36
2023/03/17 03:04:55;;;;;;;0.30;0.30;;;;;;;18.65;43.75;100492.47;5132517;27;20047;-37
2023/03/17 03:07:21;;;;;;;0.30;0.30;;;;;;;18.65;43.51;100481.44;5132108;27;20534;-37
2023/03/17 03:09:47;;;;;;;0.30;0.30;;;;;;;18.64;43.60;100465.16;5113511;27;20510;-37
2023/03/17 03:12:13;;;;;;;0.30;0.30;;;;;;;18.64;43.65;100476.19;5124327;27;20043;-36
2023/03/17 03:14:38;;;;;;;0.20;0.20;;;;;;;18.64;43.88;100470.69;5110995;28;20071;-37
2023/03/17 03:17:04;;;;;;;0.30;0.30;;;;;;;18.65;43.66;100475.94;5126025;27;20057;-36
2023/03/17 03:19:30;;;;;;;0.25;0.25;;;;;;;18.65;43.58;100475.09;5131548;27;20502;-36
2023/03/17 03:21:55;;;;;;;0.30;0.30;;;;;;;18.64;43.84;100470.69;5131339;27;20054;-37
2023/03/17 03:24:21;;;;;;;0.30;0.30;;;;;;;18.64;43.70;100468.75;5131981;27;20051;-37
2023/03/17 03:26:47;;;;;;;0.30;0.30;;;;;;;18.65;43.50;100455.78;5130504;27;20077;-37
2023/03/17 03:29:13;;;;;;;0.30;0.30;;;;;;;18.64;43.70;100470.69;5110523;27;20107;-36
2023/03/17 03:31:38;;;;;;;0.30;0.30;;;;;;;18.64;43.63;100468.75;5110687;28;20078;-37
2023/03/17 03:34:04;;;;;;;0.30;0.30;;;;;;;18.65;43.82;100461.28;5101006;28;20479;-36
2023/03/17 03:36:29;;;;;;;0.30;0.30;;;;;;;18.64;43.53;100460.47;5105818;28;20043;-36
2023/03/17 03:38:56;;;;;;;0.30;0.30;;;;;;;18.64;43.78;100466.00;5106975;28;20051;-37
2023/03/17 03:41:21;;;;;;;0.30;0.30;;;;;;;18.64;43.79;100468.75;5117159;28;20078;-37
2023/03/17 03:43:47;;;;;;;0.30;0.30;;;;;;;18.64;43.80;100460.47;5117126;28;20123;-37
2023/03/17 03:46:14;;;;;;;0.30;0.30;;;;;;;18.65;43.62;100453.88;5117990;28;20038;-36
2023/03/17 03:48:40;;;;;;;0.30;0.30;;;;;;;18.64;43.62;100459.66;5113858;28;20046;-36
2023/03/17 03:51:05;;;;;;;0.30;0.30;;;;;;;18.65;43.60;100466.81;5096493;28;20183;-37
2023/03/17 03:53:31;;;;;;;0.30;0.30;;;;;;;18.65;43.77;100483.34;5096741;28;20475;-37
2023/03/17 03:55:57;;;;;;;0.30;0.30;;;;;;;18.65;43.71;100472.31;5096934;28;20043;-36
2023/03/17 03:58:23;;;;;;;0.30;0.30;;;;;;;18.65;43.65;100475.09;5096746;28;20054;-37
2023/03/17 04:00:49;;;;;;;0.30;0.30;;;;;;;18.64;43.82;100478.97;5061804;28;20044;-37
2023/03/17 04:03:14;;;;;;;0.30;0.30;;;;;;;18.64;43.52;100481.72;5077604;28;20542;-37
2023/03/17 04:05:40;;;;;;;0.30;0.30;;;;;;;18.64;43.83;100490.81;5096101;28;20067;-37
2023/03/17 04:08:06;;;;;;;0.30;0.30;;;;;;;18.64;43.62;100493.56;5096964;28;20039;-37
2023/03/17 04:10:32;;;;;;;0.30;0.30;;;;;;;18.65;43.80;100483.34;5096582;28;20078;-37
2023/03/17 04:12:58;;;;;;;0.30;0.30;;;;;;;18.64;43.82;100484.47;5116884;28;20085;-37
2023/03/17 04:15:24;;;;;;;0.30;0.30;;;;;;;18.64;43.75;100476.19;5097854;28;20134;-36
2023/03/17 04:17:50;;;;;;;0.30;0.30;;;;;;;18.65;43.79;100483.34;5107812;28;20046;-36
2023/03/17 04:20:17;;;;;;;0.30;0.30;;;;;;;18.64;43.80;100490.00;5096811;28;20521;-37
2023/03/17 04:22:43;;;;;;;0.30;0.30;;;;;;;18.64;43.74;100481.72;5078204;28;20403;-37
2023/03/17 04:25:11;;;;;;;0.30;0.30;;;;;;;18.64;43.68;100465.16;5105135;28;20069;-37
2023/03/17 04:27:37;;;;;;;0.30;0.30;;;;;;;18.64;43.74;100473.44;5116236;28;20406;-36
2023/03/17 04:30:03;;;;;;;0.30;0.30;;;;;;;18.64;43.71;100473.44;5098536;28;20107;-36
2023/03/17 04:32:29;;;;;;;0.20;0.20;;;;;;;18.62;43.71;100476.50;5098499;28;20051;-36
2023/03/17 04:34:55;;;;;;;0.22;0.22;;;;;;;18.64;43.87;100476.19;5116613;28;20484;-36
2023/03/17 04:37:21;;;;;;;0.30;0.30;;;;;;;18.64;43.74;100470.69;5114533;28;20081;-37
2023/03/17 04:39:47;;;;;;;0.30;0.30;;;;;;;18.64;43.55;100473.44;5115666;28;20043;-37
2023/03/17 04:42:13;;;;;;;0.22;0.22;;;;;;;18.63;43.80;100472.63;5116247;28;20043;-36
2023/03/17 04:44:38;;;;;;;0.20;0.20;;;;;;;18.63;43.68;100469.88;5116100;27;20109;-37
2023/03/17 04:47:04;;;;;;;0.30;0.30;;;;;;;18.63;43.90;100480.06;5116101;28;20047;-36
2023/03/17 04:49:30;;;;;;;0.30;0.30;;;;;;;18.63;43.77;100480.06;5114678;28;20486;-37
2023/03/17 04:51:55;;;;;;;0.30;0.30;;;;;;;18.62;43.76;100473.75;5116281;28;20578;-37
2023/03/17 04:54:21;;;;;;;0.30;0.30;;;;;;;18.63;43.85;100463.53;5115907;28;20122;-36
2023/03/17 04:56:47;;;;;;;0.30;0.30;;;;;;;18.63;43.69;100463.53;5116149;28;20068;-37
2023/03/17 04:59:13;;;;;;;0.30;0.30;;;;;;;18.63;43.76;100464.34;5098284;28;20482;-37
2023/03/17 05:01:38;;;;;;;0.30;0.30;;;;;;;18.63;43.77;100472.63;5116013;28;20126;-37
2023/03/17 05:04:05;;;;;;;0.30;0.30;;;;;;;18.64;43.78;100473.44;5116293;28;20113;-37
2023/03/17 05:06:31;;;;;;;0.30;0.30;;;;;;;18.64;43.65;100477.03;5116355;28;20051;-36
2023/03/17 05:08:56;;;;;;;0.30;0.30;;;;;;;18.63;43.86;100478.13;5116063;28;20492;-37
2023/03/17 05:11:22;;;;;;;0.30;0.30;;;;;;;18.63;43.86;100471.81;5115666;28;20043;-37
2023/03/17 05:13:48;;;;;;;0.25;0.25;;;;;;;18.64;43.80;100476.19;5115537;28;20051;-37
2023/03/17 05:16:14;;;;;;;0.30;0.30;;;;;;;18.64;43.86;100479.78;5115823;28;20047;-37
2023/03/17 05:18:40;;;;;;;0.30;0.30;;;;;;;18.63;43.76;100488.34;5081378;28;20040;-37
2023/03/17 05:21:06;;;;;;;0.30;0.30;;;;;;;18.63;43.80;100482.84;5096089;28;20051;-37
2023/03/17 05:23:33;;;;;;;0.30;0.30;;;;;;;18.62;43.67;100482.00;5095585;28;20074;-37
2023/03/17 05:25:58;;;;;;;0.28;0.28;;;;;;;18.62;43.79;100481.19;5088234;28;20051;-37
2023/03/17 05:28:25;;;;;;;0.30;0.30;;;;;;;18.64;43.84;100490.00;5115811;28;20051;-36
2023/03/17 05:30:51;;;;;;;0.30;0.30;;;;;;;18.62;43.69;100484.78;5116250;27;20047;-37
2023/03/17 05:33:18;;;;;;;0.30;0.30;;;;;;;18.62;43.79;100495.81;5115216;28;20411;-37
2023/03/17 05:35:44;;;;;;;0.30;0.30;;;;;;;18.61;43.86;100488.66;5115799;28;20070;-37
2023/03/17 05:38:10;;;;;;;0.20;0.20;;;;;;;18.62;43.70;100482.00;5104814;27;20115;-37
2023/03/17 05:40:36;;;;;;;0.30;0.30;;;;;;;18.62;43.70;100486.72;5077645;28;20051;-36
2023/03/17 05:43:03;;;;;;;0.30;0.30;;;;;;;18.62;43.66;100482.00;5101973;28;20088;-37
2023/03/17 05:45:29;;;;;;;0.30;0.30;;;;;;;18.62;44.06;100476.50;5104760;28;20043;-37
2023/03/17 05:47:55;;;;;;;0.30;0.30;;;;;;;18.62;43.74;100473.75;5086464;28;20069;-37
2023/03/17 05:50:21;;;;;;;0.30;0.30;;;;;;;18.63;43.66;100474.56;5130651;27;20050;-36
2023/03/17 05:52:48;;;;;;;0.30;0.30;;;;;;;18.62;43.92;100473.75;5092427;28;20047;-36
2023/03/17 05:55:13;;;;;;;0.30;0.30;;;;;;;18.62;43.84;100476.50;5095125;28;20475;-37
2023/03/17 05:57:39;;;;;;;0.30;0.30;;;;;;;18.62;43.62;100470.97;5102545;28;20049;-37
2023/03/17 06:00:06;;;;;;;0.30;0.30;;;;;;;18.63;43.78;100463.53;5067793;28;20044;-36
2023/03/17 06:02:32;;;;;;;0.30;0.30;;;;;;;18.62;43.69;100464.66;5111752;28;20116;-37
2023/03/17 06:04:58;;;;;;;0.30;0.30;;;;;;;18.63;43.84;100463.53;5111851;28;20399;-37
2023/03/17 06:07:23;;;;;;;0.30;0.30;;;;;;;18.62;43.80;100473.75;5102421;28;20055;-37
2023/03/17 06:09:49;;;;;;;0.30;0.30;;;;;;;18.64;43.86;100467.94;5109244;28;20369;-37
2023/03/17 06:12:15;;;;;;;0.30;0.30;;;;;;;18.62;43.70;100472.91;5107993;28;20054;-37
2023/03/17 06:14:40;;;;;;;0.30;0.30;;;;;;;18.62;43.90;100473.75;5110737;27;20043;-37
2023/03/17 06:17:07;;;;;;;0.30;0.30;;;;;;;18.62;43.93;100470.16;5106078;28;20425;-36
2023/03/17 06:19:32;;;;;;;0.30;0.30;;;;;;;18.61;43.73;100472.09;5088743;28;20085;-36
2023/03/17 06:21:58;;;;;;;0.30;0.30;;;;;;;18.61;43.61;100472.09;5111392;28;20043;-36
2023/03/17 06:24:24;;;;;;;0.30;0.30;;;;;;;18.61;43.85;100472.09;5112927;28;20256;-36
2023/03/17 06:26:51;;;;;;;0.30;0.30;;;;;;;18.61;43.61;100465.72;5102461;28;20673;-37
2023/03/17 06:29:17;;;;;;;0.20;0.20;;;;;;;18.61;43.60;100457.47;5105574;28;20490;-37
2023/03/17 06:31:49;;;;;;;0.30;0.30;;;;;;;18.60;43.57;100462.16;5095480;28;20051;-36
2023/03/17 06:34:17;;;;;;;0.30;0.30;;;;;;;18.61;43.74;100452.78;5112808;28;20079;-37
2023/03/17 06:36:43;;;;;;;0.20;0.20;;;;;;;18.61;43.73;100460.22;5112975;28;20051;-37
2023/03/17 06:39:09;;;;;;;0.30;0.30;;;;;;;18.61;43.63;100461.06;5094577;28;20054;-36
2023/03/17 06:41:35;;;;;;;0.30;0.30;;;;;;;18.66;42.73;100465.72;5112085;28;20115;-37
2023/03/17 06:44:01;;;;;;;0.30;0.30;;;;;;;18.67;43.63;100459.91;5113273;28;20615;-37
2023/03/17 06:46:27;;;;;;;0.30;0.30;;;;;;;18.66;43.57;100460.19;5112728;27;20043;-37
2023/03/17 06:48:53;;;;;;;0.30;0.30;;;;;;;18.64;43.54;100466.00;5094555;27;20074;-37
2023/03/17 06:51:18;;;;;;;0.30;0.30;;;;;;;18.64;43.78;100471.50;5104817;28;20398;-36
2023/03/17 06:53:44;;;;;;;0.20;0.20;;;;;;;18.64;43.83;100487.22;5109143;28;20043;-36
2023/03/17 06:56:10;;;;;;;0.20;0.20;;;;;;;18.64;43.67;100476.19;5104633;27;20130;-37
2023/03/17 06:58:54;;;;;;;0.30;0.30;;;;;;;18.65;43.82;100477.84;5108668;28;20766;-37
2023/03/17 07:01:21;;;;;;;0.20;0.20;;;;;;;18.64;43.76;100477.03;5098495;27;20179;-39
2023/03/17 07:03:46;;;;;;;0.30;0.30;;;;;;;18.63;43.93;100483.66;5099684;28;20088;-39
2023/03/17 07:06:13;;;;;;;0.30;0.30;;;;;;;18.63;43.88;100464.34;5098012;28;20523;-39
2023/03/17 07:08:40;;;;;;;0.30;0.30;;;;;;;18.65;43.84;100483.34;5101304;27;20488;-39
2023/03/17 07:11:06;;;;;;;0.30;0.30;;;;;;;18.66;43.81;100474.00;5105176;28;20043;-39
2023/03/17 07:13:36;;;;;;;0.30;0.30;;;;;;;18.66;44.03;100474.81;5078798;28;20055;-39
2023/03/17 07:16:02;;;;;;;0.30;0.30;;;;;;;18.67;43.90;100475.63;5100452;28;20341;-39
2023/03/17 07:18:30;;;;;;;0.30;0.30;;;;;;;18.68;43.69;100480.03;5081165;28;20200;-39
2023/03/17 07:20:56;;;;;;;;;;;;;;;18.68;43.84;100483.59;5103773;27;20530;-39
2023/03/17 07:23:23;;;;;;;0.20;0.20;;;;;;;18.67;43.48;100483.91;5103462;28;20401;-39
2023/03/17 07:25:49;;;;;;;0.30;0.30;;;;;;;18.69;43.75;100477.00;5087935;28;20046;-39
2023/03/17 07:28:15;;;;;;;0.30;0.30;;;;;;;18.68;43.99;100480.84;5107494;28;20499;-39
2023/03/17 07:30:45;;;;;;;0.30;0.30;;;;;;;18.70;43.81;100483.38;5112809;28;20050;-39
2023/03/17 07:33:12;;;;;;;0.30;0.30;;;;;;;18.70;43.75;100470.41;5110342;28;20054;-39
2023/03/17 07:35:38;;;;;;;0.30;0.30;;;;;;;18.70;43.88;100475.09;5089735;28;20051;-39
2023/03/17 07:38:04;;;;;;;0.30;0.30;;;;;;;18.70;43.80;100475.09;5107080;28;20155;-39
2023/03/17 07:40:30;;;;;;;0.30;0.30;;;;;;;18.72;43.86;100478.38;5100612;28;20697;-39
2023/03/17 07:42:57;;;;;;;0.20;0.20;;;;;;;18.71;43.87;100469.28;5110511;28;20040;-39
2023/03/17 07:45:23;;;;;;;0.30;0.30;;;;;;;18.70;43.60;100459.38;5101498;28;20043;-40
2023/03/17 07:47:48;;;;;;;0.30;0.30;;;;;;;18.70;43.83;100464.88;5104011;28;20042;-39
2023/03/17 07:50:14;;;;;;;0.30;0.30;;;;;;;18.71;43.71;100461.00;5105334;28;20052;-39
2023/03/17 07:52:41;;;;;;;0.30;0.30;;;;;;;18.72;43.77;100461.81;5099726;27;20442;-39
2023/03/17 07:55:09;;;;;;;0.30;0.30;;;;;;;18.70;43.58;100461.31;5098634;28;20690;-40
2023/03/17 07:57:35;;;;;;;;;;;;;;;18.71;43.70;100469.28;5097209;27;20108;-39
2023/03/17 08:00:03;;;;;;;0.30;0.30;;;;;;;18.71;43.77;100462.94;5098911;28;20172;-39
2023/03/17 08:02:28;;;;;;;0.20;0.20;;;;;;;18.72;43.67;100464.59;5070554;27;20236;-39
2023/03/17 08:04:55;;;;;;;0.30;0.30;;;;;;;18.70;43.86;100466.81;5094939;28;20112;-40
2023/03/17 08:07:21;;;;;;;0.30;0.30;;;;;;;18.72;43.85;100461.81;5083661;27;21532;-39
2023/03/17 08:09:47;;;;;;;0.30;0.30;;;;;;;18.71;43.65;100457.44;5084995;28;20346;-39
2023/03/17 08:12:13;;;;;;;0.30;0.30;;;;;;;18.70;43.63;100467.66;5094491;27;20063;-40
2023/03/17 08:14:40;;;;;;;0.30;0.30;;;;;;;18.70;43.80;100470.41;5095933;27;20587;-39
2023/03/17 08:17:06;;;;;;;0.30;0.30;;;;;;;18.70;43.70;100475.91;5089886;27;20082;-40
2023/03/17 08:19:32;;;;;;;0.30;0.30;;;;;;;18.70;43.60;100478.69;5095156;27;20127;-39
2023/03/17 08:21:58;;;;;;;0.30;0.30;;;;;;;18.71;43.80;100479.50;5082008;28;20326;-39
2023/03/17 08:24:25;;;;;;;0.30;0.30;;;;;;;18.70;43.75;100484.19;5079492;28;20556;-39
2023/03/17 08:26:51;;;;;;;0.30;0.30;;;;;;;18.69;43.70;100482.53;5100465;28;20039;-39
2023/03/17 08:29:17;;;;;;;0.30;0.30;;;;;;;18.70;43.95;100481.44;5102035;28;20353;-39
2023/03/17 08:31:43;;;;;;;0.30;0.30;;;;;;;18.70;43.64;100477.84;5107621;28;20051;-39
2023/03/17 08:34:11;;;;;;;0.30;0.30;;;;;;;18.69;43.68;100482.53;5086105;28;20449;-39
2023/03/17 08:36:37;;;;;;;0.20;0.20;;;;;;;18.69;43.88;100489.94;5106863;27;20502;-39
2023/03/17 08:39:03;;;;;;;0.30;0.30;;;;;;;18.70;43.67;100489.72;5108407;28;20059;-39
2023/03/17 08:41:29;;;;;;;0.30;0.30;;;;;;;18.69;43.85;100489.94;5101422;27;20284;-39
2023/03/17 08:43:56;;;;;;;0.30;0.30;;;;;;;18.70;43.88;100486.13;5084654;28;20043;-39
2023/03/17 08:46:25;;;;;;;0.30;0.30;;;;;;;18.68;43.88;100480.84;5103398;27;20050;-39
2023/03/17 08:48:52;;;;;;;0.30;0.30;;;;;;;18.69;43.75;100470.63;5084243;28;20066;-40
2023/03/17 08:51:21;;;;;;;0.30;0.30;;;;;;;18.69;43.88;100473.41;5088064;28;20123;-39
2023/03/17 08:53:50;;;;;;;0.30;0.30;;;;;;;18.69;43.58;100454.09;5067183;27;20057;-39
2023/03/17 08:56:16;;;;;;;0.30;0.30;;;;;;;18.69;43.82;100467.88;5080183;28;20043;-40
2023/03/17 08:58:42;;;;;;;0.30;0.30;;;;;;;18.69;43.65;100465.97;5101542;28;20803;-39
2023/03/17 09:01:09;;;;;;;0.30;0.30;;;;;;;18.69;43.72;100467.88;5077777;28;20067;-39
2023/03/17 09:03:35;;;;;;;0.30;0.30;;;;;;;18.70;43.60;100462.13;5076692;28;20552;-40
2023/03/17 09:06:04;;;;;;;0.30;0.30;;;;;;;18.74;43.63;100463.19;5101347;27;20054;-40
2023/03/17 09:08:31;;;;;;;0.30;0.30;;;;;;;18.75;43.51;100456.56;5095625;27;20274;-39
2023/03/17 09:10:57;;;;;;;0.30;0.30;;;;;;;18.73;43.68;100466.22;5088390;27;20051;-39
2023/03/17 09:13:23;;;;;;;0.20;0.20;;;;;;;18.72;43.64;100468.16;5051468;28;20518;-40
2023/03/17 09:15:49;;;;;;;0.30;0.30;;;;;;;18.69;41.36;100454.94;5090208;28;20043;-40
2023/03/17 09:18:17;;;;;;;;;;;;;;;18.67;40.50;100464.59;5099347;28;20294;-39
2023/03/17 09:20:46;;;;;;;0.30;0.30;;;;;;;18.72;42.88;100459.88;5079692;28;19924;-39
2023/03/17 09:23:12;;;;;;;0.30;0.30;;;;;;;18.74;43.38;100463.19;5095419;27;20047;-39
2023/03/17 09:25:41;;;;;;;0.30;0.30;;;;;;;18.73;43.60;100461.53;5099223;28;20039;-39
2023/03/17 09:28:06;;;;;;;0.30;0.30;;;;;;;18.74;43.63;100459.63;5097979;27;20442;-43
2023/03/17 09:30:32;;;;;;;0.30;0.30;;;;;;;18.77;42.62;100459.03;5079794;28;20055;-40
2023/03/17 09:32:59;;;;;;;0.30;0.30;;;;;;;18.77;42.99;100451.56;5086651;27;20047;-40
2023/03/17 09:35:26;;;;;;;0.30;0.30;;;;;;;18.79;43.47;100452.13;5052851;27;20055;-39
2023/03/17 09:37:53;;;;;;;0.20;0.20;;;;;;;18.78;43.76;100458.75;5082096;27;20086;-39
2023/03/17 09:40:21;;;;;;;0.20;0.20;;;;;;;18.78;43.98;100449.63;5088079;27;20058;-39
2023/03/17 09:42:53;;;;;;;0.30;0.30;;;;;;;18.75;41.02;100452.97;5070416;28;20043;-39
2023/03/17 09:45:37;;;;;;;0.30;0.30;;;;;;;18.80;43.68;100452.94;5093005;27;20055;-39
2023/03/17 09:48:21;;;;;;;0.20;0.20;;;;;;;18.78;43.46;100453.22;5057981;28;20396;-39
2023/03/17 09:50:55;;;;;;;0.20;0.20;;;;;;;18.77;40.21;100459.84;5092377;27;20498;-39
2023/03/17 09:53:26;;;;;;;0.30;0.30;;;;;;;18.63;40.29;100461.59;5088041;27;20534;-40
2023/03/17 09:55:54;;;;;;;0.30;0.30;;;;;;;18.73;42.06;100452.44;5094568;28;20043;-39
2023/03/17 09:58:25;;;;;;;0.20;0.20;;;;;;;18.75;42.54;100459.31;5092703;27;20411;-39
2023/03/17 10:00:51;;;;;;;0.20;0.20;;;;;;;18.77;42.54;100464.53;5102240;28;20090;-39
2023/03/17 10:03:17;;;;;;;0.30;0.30;;;;;;;18.78;42.69;100463.41;5101125;27;20039;-39
2023/03/17 10:05:43;;;;;;;0.30;0.30;;;;;;;18.78;42.80;100466.19;5099586;27;20388;-39
2023/03/17 10:08:28;;;;;;;0.20;0.20;;;;;;;18.78;42.61;100467.03;5093680;27;20035;-39
2023/03/17 10:11:07;;;;;;;0.30;0.30;;;;;;;18.79;42.87;100459.56;5077393;28;20476;-39
2023/03/17 10:13:48;;;;;;;0.30;0.30;;;;;;;18.79;42.97;100454.06;5101940;28;20051;-39
2023/03/17 10:16:19;;;;;;;0.30;0.30;;;;;;;18.79;42.98;100456.81;5096241;27;20047;-40
2023/03/17 10:18:53;;;;;;;0.20;0.20;;;;;;;18.79;43.00;100452.13;5077988;28;20130;-39
2023/03/17 10:21:23;;;;;;;0.30;0.30;;;;;;;18.79;42.98;100463.16;5094222;28;20376;-39
2023/03/17 10:23:49;;;;;;;0.20;0.20;;;;;;;18.80;43.03;100470.31;5086752;28;20136;-39
2023/03/17 10:26:39;;;;;;;0.20;0.20;;;;;;;18.82;42.84;100467.25;5083470;27;20067;-39
2023/03/17 10:29:11;;;;;;;0.30;0.30;;;;;;;18.82;42.89;100467.25;5076284;28;20047;-39
2023/03/17 10:31:38;;;;;;;0.20;0.20;;;;;;;18.82;42.57;100460.91;5069705;28;20117;-39
2023/03/17 10:34:17;;;;;;;0.30;0.30;;;;;;;18.82;42.78;100458.97;5087541;27;20134;-39
2023/03/17 10:36:46;;;;;;;0.30;0.30;;;;;;;18.83;43.08;100454.31;5088033;27;20055;-39
2023/03/17 10:39:16;;;;;;;0.30;0.30;;;;;;;18.83;42.22;100446.03;5069856;28;20039;-40
2023/03/17 10:42:07;;;;;;;0.30;0.30;;;;;;;18.84;42.34;100445.72;5075571;28;20066;-39
2023/03/17 10:44:44;;;;;;;0.30;0.30;;;;;;;18.83;43.11;100446.84;5056431;28;20044;-40
2023/03/17 10:47:32;;;;;;;0.30;0.30;;;;;;;18.85;42.85;100452.88;5094489;27;20043;-39
2023/03/17 10:50:10;;;;;;;0.20;0.20;;;;;;;18.83;42.82;100437.75;5100424;27;20167;-39
2023/03/17 10:52:38;;;;;;;0.20;0.20;;;;;;;18.83;42.99;100438.56;5090366;28;20081;-39
2023/03/17 10:55:05;;;;;;;0.20;0.20;;;;;;;18.85;42.65;100427.22;5102617;27;20471;-40
2023/03/17 10:57:31;;;;;;;0.30;0.30;;;;;;;18.85;42.84;100435.50;5079053;28;20261;-39
2023/03/17 10:59:59;;;;;;;0.22;0.22;;;;;;;18.84;43.17;100434.69;5102228;28;20074;-39
2023/03/17 11:02:28;;;;;;;0.30;0.30;;;;;;;18.84;43.16;100429.16;5091038;28;20135;-39
2023/03/17 11:04:59;;;;;;;0.30;0.30;;;;;;;18.84;43.18;100429.16;5090222;28;20766;-39
2023/03/17 11:07:30;;;;;;;0.30;0.30;;;;;;;18.85;43.06;100424.47;5092908;28;20287;-39
2023/03/17 11:09:58;;;;;;;0.30;0.30;;;;;;;18.85;43.02;100421.72;5104982;28;20071;-39
2023/03/17 11:12:26;;;;;;;0.20;0.20;;;;;;;18.85;42.96;100422.53;5069587;27;20082;-39
2023/03/17 11:14:58;;;;;;;0.30;0.30;;;;;;;18.84;43.13;100420.91;5097943;27;20052;-39
2023/03/17 11:17:53;;;;;;;0.20;0.20;;;;;;;18.85;43.16;100427.22;5106032;27;20758;-39
2023/03/17 11:20:49;;;;;;;0.30;0.30;;;;;;;18.84;43.00;100425.59;5081821;28;20371;-40
2023/03/17 11:23:43;;;;;;;0.25;0.25;;;;;;;18.84;43.17;100412.63;5088581;28;20090;-40
2023/03/17 11:26:46;;;;;;;0.30;0.30;;;;;;;18.85;43.07;100413.44;5093760;28;20039;-39
2023/03/17 11:29:37;;;;;;;0.20;0.20;;;;;;;18.84;43.15;100411.78;5086368;27;20093;-41
2023/03/17 11:32:23;;;;;;;0.30;0.30;;;;;;;18.85;42.91;100400.47;5087017;28;20065;-39